createdAt,value
2019-01-21T08:24:52.289Z,30
2019-01-21T08:26:02.264Z,40
2019-01-21T08:27:12.234Z,40
2019-01-21T08:28:22.203Z,40
2019-01-21T08:29:32.231Z,45
2019-01-21T08:30:42.202Z,45
2019-01-21T08:31:52.171Z,45
2019-01-21T08:33:02.142Z,50
2019-01-21T08:34:12.116Z,50
2019-01-21T08:35:22.095Z,50
2019-01-21T08:36:32.071Z,50
2019-01-21T08:37:42.050Z,50
2019-01-21T08:38:52.065Z,50
2019-01-21T08:40:01.791Z,55
2019-01-21T08:41:11.867Z,55
2019-01-21T08:42:21.848Z,55
2019-01-21T08:43:31.822Z,55
2019-01-21T08:44:41.799Z,55
2019-01-21T08:45:51.779Z,55
2019-01-21T08:47:01.863Z,55
2019-01-21T08:48:11.841Z,55
2019-01-21T08:49:21.827Z,55
2019-01-21T08:50:31.798Z,55
2019-01-21T08:51:42.884Z,60
2019-01-21T08:52:52.854Z,60
2019-01-21T08:54:02.824Z,60
2019-01-21T08:55:12.798Z,60
2019-01-21T08:56:22.772Z,60
2019-01-21T08:57:32.761Z,60
2019-01-21T08:58:42.832Z,60
2019-01-21T08:59:52.802Z,60
2019-01-21T09:01:02.783Z,60
2019-01-21T09:02:12.752Z,60
2019-01-21T09:03:23.886Z,60
2019-01-21T09:04:33.907Z,60
2019-01-21T09:05:43.882Z,60
2019-01-21T09:06:53.855Z,60
2019-01-21T09:08:03.830Z,60
2019-01-21T09:09:13.815Z,60
2019-01-21T09:10:23.790Z,65
2019-01-21T09:11:33.784Z,65
2019-01-21T09:12:43.761Z,65
2019-01-21T09:13:53.734Z,65
2019-01-21T09:15:03.711Z,65
2019-01-21T09:16:13.688Z,70
2019-01-21T09:17:23.663Z,70
2019-01-21T09:18:33.637Z,70
2019-01-21T09:19:46.755Z,70
2019-01-21T09:20:56.733Z,70
2019-01-21T09:22:06.853Z,70
2019-01-21T09:23:16.824Z,75
2019-01-21T09:24:26.547Z,75
2019-01-21T09:25:36.522Z,75
2019-01-21T09:26:46.522Z,75
2019-01-21T09:27:56.826Z,75
2019-01-21T09:29:06.807Z,75
2019-01-21T09:30:16.788Z,75
2019-01-21T09:31:26.771Z,75
2019-01-21T09:32:36.750Z,75
2019-01-21T09:33:46.877Z,75
2019-01-21T09:34:56.859Z,80
2019-01-21T09:36:06.839Z,80
2019-01-21T09:37:16.851Z,80
2019-01-21T09:38:26.829Z,80
2019-01-21T09:39:36.952Z,85
2019-01-21T09:40:46.932Z,85
2019-01-21T09:41:56.916Z,85
2019-01-21T09:43:06.888Z,85
2019-01-21T09:44:16.865Z,90
2019-01-21T09:45:26.896Z,95
2019-01-21T09:46:36.872Z,100
2019-01-21T09:47:46.850Z,105
2019-01-21T09:48:56.824Z,105
2019-01-21T09:50:06.804Z,110
2019-01-21T09:51:16.927Z,110
2019-01-21T09:52:26.905Z,110
2019-01-21T09:53:36.878Z,110
2019-01-21T09:54:46.858Z,110
2019-01-21T09:55:56.834Z,115
2019-01-21T09:57:06.865Z,115
2019-01-21T09:58:16.837Z,115
2019-01-21T09:59:26.810Z,115
2019-01-21T10:00:36.791Z,115
2019-01-21T10:01:46.774Z,120
2019-01-21T10:02:56.850Z,130
2019-01-21T10:04:06.825Z,135
2019-01-21T10:05:16.832Z,145
2019-01-21T10:06:26.805Z,150
2019-01-21T10:07:36.791Z,155
2019-01-21T10:08:46.869Z,165
2019-01-21T10:10:02.475Z,170
2019-01-21T10:11:12.889Z,175
2019-01-21T10:12:22.612Z,180
2019-01-21T10:13:32.592Z,175
2019-01-21T10:14:42.667Z,180
2019-01-21T10:15:52.638Z,180
2019-01-21T10:17:02.619Z,190
2019-01-21T10:18:12.632Z,200
2019-01-21T10:19:22.605Z,225
2019-01-21T10:20:32.584Z,240
2019-01-21T10:21:42.571Z,245
2019-01-21T10:22:52.554Z,245
2019-01-21T10:24:02.539Z,245
2019-01-21T10:25:12.522Z,245
2019-01-21T10:26:22.549Z,230
2019-01-21T10:27:32.522Z,245
2019-01-21T10:28:42.497Z,215
2019-01-21T10:29:52.471Z,210
2019-01-21T10:31:02.191Z,200
2019-01-21T10:32:12.330Z,205
2019-01-21T10:33:22.057Z,210
2019-01-21T10:34:33.252Z,210
2019-01-21T10:35:43.231Z,210
2019-01-21T10:36:53.212Z,205
2019-01-21T10:38:03.341Z,200
2019-01-21T10:39:13.318Z,200
2019-01-21T10:40:24.202Z,195
2019-01-21T10:41:34.177Z,200
2019-01-21T10:42:44.157Z,190
2019-01-21T10:43:54.132Z,195
2019-01-21T10:45:05.589Z,200
2019-01-21T10:46:15.670Z,205
2019-01-21T10:47:25.650Z,210
2019-01-21T10:48:35.622Z,215
2019-01-21T10:49:45.648Z,215
2019-01-21T10:50:55.629Z,215
2019-01-21T10:52:05.614Z,220
2019-01-21T10:53:15.598Z,230
2019-01-21T10:54:25.573Z,230
2019-01-21T10:55:35.653Z,235
2019-01-21T10:56:45.635Z,235
2019-01-21T10:57:55.614Z,240
2019-01-21T10:59:05.594Z,235
2019-01-21T11:00:15.585Z,225
2019-01-21T11:01:25.664Z,210
2019-01-21T11:02:35.639Z,205
2019-01-21T11:03:45.619Z,195
2019-01-21T11:04:55.593Z,190
2019-01-21T11:06:05.579Z,190
2019-01-21T11:07:15.404Z,195
2019-01-21T11:08:25.395Z,185
2019-01-21T11:09:36.175Z,175
2019-01-21T11:10:46.155Z,175
2019-01-21T11:12:01.175Z,175
2019-01-21T11:13:11.200Z,170
2019-01-21T11:14:22.050Z,170
2019-01-21T11:15:32.032Z,175
2019-01-21T11:16:42.016Z,180
2019-01-21T11:17:51.665Z,190
2019-01-21T11:19:01.642Z,200
2019-01-21T11:20:13.447Z,205
2019-01-21T11:21:23.421Z,260
2019-01-21T11:22:33.148Z,290
2019-01-21T11:23:43.130Z,380
2019-01-21T11:24:53.235Z,245
2019-01-21T11:26:03.216Z,240
2019-01-21T11:27:13.190Z,245
2019-01-21T11:28:23.174Z,245
2019-01-21T11:29:33.154Z,250
2019-01-21T11:30:43.235Z,265
2019-01-21T11:31:53.218Z,390
2019-01-21T11:33:04.042Z,420
2019-01-21T11:34:14.022Z,415
2019-01-21T11:35:24.003Z,395
2019-01-21T11:36:34.040Z,405
2019-01-21T11:37:44.029Z,400
2019-01-21T11:38:54.018Z,405
2019-01-21T11:40:04.001Z,410
2019-01-21T11:41:13.981Z,380
2019-01-21T11:42:24.014Z,270
2019-01-21T11:43:34.156Z,210
2019-01-21T11:44:44.145Z,225
2019-01-21T11:45:54.132Z,350
2019-01-21T11:47:04.111Z,395
2019-01-21T11:48:14.135Z,395
2019-01-21T11:49:24.114Z,400
2019-01-21T11:50:33.983Z,375
2019-01-21T11:51:43.966Z,365
2019-01-21T11:52:53.951Z,390
2019-01-21T11:54:03.681Z,400
2019-01-21T11:55:13.663Z,400
2019-01-21T11:56:23.647Z,400
2019-01-21T11:57:33.630Z,405
2019-01-21T11:58:43.614Z,405
2019-01-21T11:59:53.706Z,405
2019-01-21T12:01:03.691Z,405
2019-01-21T12:02:13.673Z,410
2019-01-21T12:03:28.361Z,410
2019-01-21T12:04:38.426Z,410
2019-01-21T12:05:48.454Z,410
2019-01-21T12:06:58.450Z,410
2019-01-21T12:08:08.434Z,405
2019-01-21T12:09:18.424Z,405
2019-01-21T12:10:28.415Z,410
2019-01-21T12:11:38.508Z,410
2019-01-21T12:12:48.497Z,395
2019-01-21T12:13:58.483Z,405
2019-01-21T12:15:08.471Z,410
2019-01-21T12:16:18.455Z,410
2019-01-21T12:17:28.491Z,415
2019-01-21T12:18:38.476Z,415
2019-01-21T12:19:48.463Z,415
2019-01-21T12:20:58.451Z,415
2019-01-21T12:22:08.481Z,425
2019-01-21T12:23:18.570Z,425
2019-01-21T12:24:28.562Z,425
2019-01-21T12:25:38.548Z,430
2019-01-21T12:26:48.537Z,435
2019-01-21T12:27:58.530Z,435
2019-01-21T12:29:09.228Z,445
2019-01-21T12:30:19.220Z,445
2019-01-21T12:31:29.232Z,450
2019-01-21T12:32:38.968Z,455
2019-01-21T12:33:48.954Z,460
2019-01-21T12:34:59.212Z,470
2019-01-21T12:36:09.200Z,480
2019-01-21T12:37:19.191Z,490
2019-01-21T12:38:29.177Z,495
2019-01-21T12:39:39.165Z,505
2019-01-21T12:40:49.205Z,520
2019-01-21T12:41:59.194Z,530
2019-01-21T12:43:09.181Z,540
2019-01-21T12:44:19.172Z,545
2019-01-21T12:45:29.158Z,540
2019-01-21T12:46:39.485Z,545
2019-01-21T12:47:49.557Z,575
2019-01-21T12:48:59.589Z,605
2019-01-21T12:50:09.587Z,605
2019-01-21T12:51:19.577Z,590
2019-01-21T12:52:29.742Z,600
2019-01-21T12:53:39.821Z,610
2019-01-21T12:54:50.060Z,630
2019-01-21T12:56:00.060Z,665
2019-01-21T12:57:09.723Z,760
2019-01-21T12:58:19.766Z,895
2019-01-21T12:59:29.878Z,870
2019-01-21T13:00:39.874Z,775
2019-01-21T13:01:49.871Z,725
2019-01-21T13:02:59.860Z,705
2019-01-21T13:04:09.899Z,700
2019-01-21T13:05:19.910Z,695
2019-01-21T13:06:29.897Z,665
2019-01-21T13:07:39.558Z,645
2019-01-21T13:08:49.565Z,630
2019-01-21T13:09:59.563Z,625
2019-01-21T13:11:09.551Z,620
2019-01-21T13:12:19.546Z,620
2019-01-21T13:13:29.534Z,615
2019-01-21T13:14:39.523Z,600
2019-01-21T13:15:49.512Z,595
2019-01-21T13:16:59.498Z,590
2019-01-21T13:18:09.490Z,590
2019-01-21T13:19:19.158Z,585
2019-01-21T13:20:35.327Z,575
2019-01-21T13:21:45.361Z,565
2019-01-21T13:23:00.821Z,565
2019-01-21T13:24:10.810Z,565
2019-01-21T13:25:20.800Z,570
2019-01-21T13:26:30.790Z,560
2019-01-21T13:27:40.928Z,555
2019-01-21T13:28:50.917Z,540
2019-01-21T13:30:02.405Z,525
2019-01-21T13:31:12.488Z,510
2019-01-21T13:32:22.476Z,485
2019-01-21T13:33:32.566Z,395
2019-01-21T13:34:42.552Z,280
2019-01-21T13:35:52.537Z,230
2019-01-21T13:37:02.524Z,225
2019-01-21T13:38:12.563Z,210
2019-01-21T13:39:22.602Z,170
2019-01-21T13:40:32.595Z,175
2019-01-21T13:41:42.594Z,145
2019-01-21T13:42:52.613Z,125
2019-01-21T13:44:02.599Z,120
2019-01-21T13:45:12.647Z,110
2019-01-21T13:46:22.632Z,140
2019-01-21T13:47:32.620Z,155
2019-01-21T13:48:42.601Z,135
2019-01-21T13:49:52.919Z,140
2019-01-21T13:51:02.963Z,160
2019-01-21T13:52:12.624Z,175
2019-01-21T13:53:22.605Z,160
2019-01-21T13:54:32.590Z,130
2019-01-21T13:55:42.574Z,110
2019-01-21T13:56:52.716Z,100
2019-01-21T13:58:02.447Z,95
2019-01-21T13:59:12.433Z,90
2019-01-21T14:00:22.418Z,85
2019-01-21T14:01:32.397Z,85
2019-01-21T14:02:42.479Z,85
2019-01-21T14:03:52.459Z,80
2019-01-21T14:05:02.540Z,80
2019-01-21T14:06:12.520Z,80
2019-01-21T14:07:22.503Z,75
2019-01-21T14:08:32.536Z,75
2019-01-21T14:09:42.515Z,75
2019-01-21T14:10:52.495Z,70
2019-01-21T14:12:02.473Z,70
2019-01-21T14:13:12.457Z,70
2019-01-21T14:14:22.536Z,65
2019-01-21T14:15:32.515Z,65
2019-01-21T14:16:42.492Z,65
2019-01-21T14:17:52.471Z,60
2019-01-21T14:19:02.451Z,60
2019-01-21T14:20:16.700Z,60
2019-01-21T14:21:26.774Z,55
2019-01-21T14:22:36.750Z,55
2019-01-21T14:23:46.731Z,55
2019-01-21T14:24:56.709Z,55
2019-01-21T14:26:06.788Z,50
2019-01-21T14:27:16.765Z,50
2019-01-21T14:28:26.745Z,50
2019-01-21T14:29:36.758Z,45
2019-01-21T14:30:46.747Z,45
2019-01-21T14:31:56.894Z,45
2019-01-21T14:33:06.872Z,40
2019-01-21T14:34:16.852Z,40
2019-01-21T14:35:26.826Z,40
2019-01-21T14:36:36.804Z,40
2019-01-21T14:37:46.981Z,35
2019-01-21T14:38:56.958Z,35
2019-01-21T14:40:06.932Z,35
2019-01-21T14:41:16.908Z,30
2019-01-21T14:42:26.885Z,30
2019-01-21T14:43:38.170Z,30
2019-01-21T14:44:48.150Z,30
2019-01-21T14:45:58.127Z,25
2019-01-21T14:47:08.103Z,25
2019-01-21T14:48:18.081Z,25
2019-01-21T14:49:28.162Z,20
2019-01-21T14:50:38.173Z,20
2019-01-21T14:51:48.156Z,20
2019-01-21T14:52:58.157Z,20
2019-01-21T14:54:07.725Z,20
2019-01-21T14:55:17.802Z,15
2019-01-21T14:56:27.832Z,15
2019-01-21T14:57:37.913Z,15
2019-01-21T14:58:47.931Z,15
2019-01-21T14:59:59.045Z,10
2019-01-21T15:01:09.191Z,10
2019-01-21T15:02:18.965Z,10
2019-01-21T15:03:28.866Z,10
2019-01-21T15:04:38.985Z,10
2019-01-21T15:05:49.114Z,10
2019-01-21T15:06:59.187Z,5
2019-01-21T15:08:09.369Z,5
2019-01-21T15:09:19.622Z,5
2019-01-21T15:10:29.812Z,5
2019-01-21T15:11:40.030Z,5
2019-01-21T15:12:50.291Z,5
2019-01-21T15:14:00.376Z,5
2019-01-21T15:15:10.491Z,5
2019-01-21T15:16:20.688Z,0
2019-01-21T15:17:31.182Z,0
2019-01-21T15:18:41.500Z,0
2019-01-21T15:19:51.731Z,0
2019-01-21T15:21:07.224Z,0
2019-01-21T15:22:17.421Z,0
2019-01-21T15:23:27.465Z,0
2019-01-21T15:24:37.737Z,0
2019-01-21T15:25:47.794Z,0
2019-01-21T15:26:57.939Z,0
2019-01-21T15:28:08.178Z,0
2019-01-21T15:29:18.374Z,0
2019-01-21T15:30:28.732Z,0
2019-01-21T15:31:39.798Z,0
2019-01-21T15:32:49.972Z,0
2019-01-21T15:34:00.224Z,0
2019-01-21T15:35:10.338Z,0
2019-01-21T15:36:20.501Z,0
2019-01-21T15:37:30.533Z,0
2019-01-21T15:38:40.654Z,0
2019-01-21T15:39:50.680Z,0
2019-01-21T15:41:00.515Z,0
2019-01-21T15:42:10.727Z,0
2019-01-21T15:43:20.885Z,0
2019-01-21T15:44:31.016Z,0
2019-01-21T15:45:41.305Z,0
2019-01-21T15:46:51.297Z,0
2019-01-21T15:48:01.855Z,0
2019-01-21T15:49:11.838Z,0
2019-01-21T15:50:21.811Z,0
2019-01-21T15:51:31.798Z,0
2019-01-21T15:52:41.778Z,0
2019-01-21T15:53:51.859Z,0
2019-01-21T15:55:01.831Z,0
2019-01-21T15:56:13.404Z,0
2019-01-21T15:57:24.184Z,0
2019-01-21T15:58:34.221Z,0
2019-01-21T15:59:44.241Z,0
2019-01-21T16:00:54.220Z,0
2019-01-21T16:02:04.197Z,0
2019-01-21T16:03:14.172Z,0
2019-01-21T16:04:24.149Z,0
2019-01-21T16:05:34.224Z,0
2019-01-21T16:06:44.196Z,0
2019-01-21T16:07:54.169Z,0
2019-01-21T16:09:07.018Z,0
2019-01-21T16:10:16.990Z,0
2019-01-21T16:11:27.013Z,0
2019-01-21T16:12:36.987Z,0
2019-01-21T16:13:46.956Z,0
2019-01-21T16:14:56.925Z,0
2019-01-21T16:16:06.894Z,0
2019-01-21T16:17:16.968Z,0
2019-01-21T16:18:26.943Z,0
2019-01-21T16:19:36.917Z,0
2019-01-21T16:20:46.894Z,0
2019-01-21T16:21:56.868Z,0
2019-01-21T16:23:06.851Z,0
2019-01-21T16:24:16.820Z,0
2019-01-21T16:25:26.797Z,0
2019-01-21T16:26:40.444Z,0
2019-01-21T16:27:50.414Z,0
2019-01-21T16:29:00.490Z,0
2019-01-21T16:30:10.467Z,0
2019-01-21T16:31:20.441Z,0
2019-01-21T16:32:30.415Z,0
2019-01-21T16:33:40.386Z,0
2019-01-21T16:34:50.423Z,0
2019-01-21T16:36:00.399Z,0
2019-01-21T16:37:10.122Z,0
2019-01-21T16:38:20.100Z,0
2019-01-21T16:39:30.086Z,0
2019-01-21T16:40:40.213Z,0
2019-01-21T16:41:51.396Z,0
2019-01-21T16:43:01.425Z,0
2019-01-21T16:44:11.397Z,0
2019-01-21T16:45:21.380Z,0
2019-01-21T16:46:31.503Z,0
2019-01-21T16:47:41.526Z,0
2019-01-21T16:48:51.504Z,0
2019-01-21T16:50:01.506Z,0
2019-01-21T16:51:11.479Z,0
2019-01-21T16:52:21.302Z,0
2019-01-21T16:53:31.277Z,0
2019-01-21T16:54:41.251Z,0
2019-01-21T16:55:51.222Z,0
2019-01-21T16:57:01.200Z,0
2019-01-21T16:58:11.328Z,0
2019-01-21T16:59:21.310Z,0
2019-01-21T17:00:31.289Z,0
2019-01-21T17:01:41.270Z,0
2019-01-21T17:02:51.245Z,0
2019-01-21T17:04:01.317Z,0
2019-01-21T17:05:11.291Z,0
2019-01-21T17:06:21.265Z,0
2019-01-21T17:07:31.237Z,0
2019-01-21T17:08:41.208Z,0
2019-01-21T17:09:51.238Z,0
2019-01-21T17:11:01.208Z,0
2019-01-21T17:12:11.197Z,0
2019-01-21T17:13:21.173Z,0
2019-01-21T17:14:31.151Z,0
2019-01-21T17:15:41.275Z,0
2019-01-21T17:16:51.251Z,0
2019-01-21T17:18:01.231Z,0
2019-01-21T17:19:11.205Z,0
2019-01-21T17:20:21.178Z,0
2019-01-21T17:22:45.151Z,0
2019-01-21T17:23:55.123Z,0
2019-01-21T17:25:05.094Z,0
2019-01-21T17:26:15.065Z,0
2019-01-21T17:27:25.140Z,0
2019-01-21T17:28:35.109Z,0
2019-01-21T17:29:45.086Z,0
2019-01-21T17:30:55.057Z,0
2019-01-21T17:32:05.027Z,0
2019-01-21T17:33:15.126Z,0
2019-01-21T17:34:25.101Z,0
2019-01-21T17:35:35.074Z,0
2019-01-21T17:36:45.096Z,0
2019-01-21T17:37:55.068Z,0
2019-01-21T17:39:05.093Z,0
2019-01-21T17:40:15.062Z,0
2019-01-21T17:41:25.032Z,0
2019-01-21T17:42:35.003Z,0
2019-01-21T17:43:44.973Z,0
2019-01-21T17:44:54.994Z,0
2019-01-21T17:46:04.966Z,0
2019-01-21T17:47:14.937Z,0
2019-01-21T17:48:24.907Z,0
2019-01-21T17:49:34.878Z,0
2019-01-21T17:50:44.848Z,0
2019-01-21T17:51:54.820Z,0
2019-01-21T17:53:04.791Z,0
2019-01-21T17:54:14.762Z,0
2019-01-21T17:55:24.739Z,0
2019-01-21T17:56:34.808Z,0
2019-01-21T17:57:44.787Z,0
2019-01-21T17:58:55.438Z,0
2019-01-21T18:00:05.839Z,0
2019-01-21T18:01:15.809Z,0
2019-01-21T18:02:27.163Z,0
2019-01-21T18:03:37.200Z,0
2019-01-21T18:04:47.170Z,0
2019-01-21T18:05:57.145Z,0
2019-01-21T18:07:07.118Z,0
2019-01-21T18:08:17.138Z,0
2019-01-21T18:09:27.114Z,0
2019-01-21T18:10:37.091Z,0
2019-01-21T18:11:50.726Z,0
2019-01-21T18:13:00.706Z,0
2019-01-21T18:14:10.729Z,0
2019-01-21T18:15:20.705Z,0
2019-01-21T18:16:30.683Z,0
2019-01-21T18:17:40.662Z,0
2019-01-21T18:18:50.637Z,0
2019-01-21T18:20:00.659Z,0
2019-01-21T18:21:10.414Z,0
2019-01-21T18:22:20.389Z,0
2019-01-21T18:23:30.377Z,0
2019-01-21T18:24:40.357Z,0
2019-01-21T18:25:50.433Z,0
2019-01-21T18:27:00.408Z,0
2019-01-21T18:28:10.393Z,0
2019-01-21T18:29:20.383Z,0
2019-01-21T18:30:30.357Z,0
2019-01-21T18:31:40.430Z,0
2019-01-21T18:32:50.403Z,0
2019-01-21T18:34:00.416Z,0
2019-01-21T18:35:10.139Z,0
2019-01-21T18:36:20.352Z,0
2019-01-21T18:37:30.422Z,0
2019-01-21T18:38:40.395Z,0
2019-01-21T18:39:50.368Z,0
2019-01-21T18:41:00.343Z,0
2019-01-21T18:42:10.320Z,0
2019-01-21T18:43:20.395Z,0
2019-01-21T18:44:30.370Z,0
2019-01-21T18:45:40.357Z,0
2019-01-21T18:46:50.335Z,0
2019-01-21T18:48:00.314Z,0
2019-01-21T18:49:10.389Z,0
2019-01-21T18:50:20.360Z,0
2019-01-21T18:51:30.333Z,0
2019-01-21T18:52:40.308Z,0
2019-01-21T18:53:50.283Z,0
2019-01-21T18:55:00.256Z,0
2019-01-21T18:56:10.240Z,0
2019-01-21T18:57:19.890Z,0
2019-01-21T18:58:29.865Z,0
2019-01-21T18:59:39.838Z,0
2019-01-21T19:00:50.194Z,0
2019-01-21T19:02:00.228Z,0
2019-01-21T19:03:10.209Z,0
2019-01-21T19:04:20.199Z,0
2019-01-21T19:05:30.170Z,0
2019-01-21T19:06:40.193Z,0
2019-01-21T19:07:50.169Z,0
2019-01-21T19:09:00.146Z,0
2019-01-21T19:10:10.120Z,0
2019-01-21T19:11:20.098Z,0
2019-01-21T19:12:30.175Z,0
2019-01-21T19:13:40.148Z,0
2019-01-21T19:14:49.873Z,0
2019-01-21T19:15:59.849Z,0
2019-01-21T19:17:09.821Z,0
2019-01-21T19:18:19.987Z,0
2019-01-21T19:19:29.963Z,0
2019-01-21T19:20:39.937Z,0
2019-01-21T19:21:56.064Z,0
2019-01-21T19:23:06.044Z,0
2019-01-21T19:24:16.116Z,0
2019-01-21T19:25:26.098Z,0
2019-01-21T19:26:36.079Z,0
2019-01-21T19:27:46.067Z,0
2019-01-21T19:28:56.040Z,0
2019-01-21T19:30:06.067Z,0
2019-01-21T19:31:16.043Z,0
2019-01-21T19:32:26.013Z,0
2019-01-21T19:33:35.985Z,0
2019-01-21T19:34:45.960Z,0
2019-01-21T19:35:56.036Z,0
2019-01-21T19:37:06.010Z,0
2019-01-21T19:38:15.983Z,0
2019-01-21T19:39:25.975Z,0
2019-01-21T19:40:37.033Z,0
2019-01-21T19:41:47.051Z,0
2019-01-21T19:42:57.020Z,0
2019-01-21T19:44:07.012Z,0
2019-01-21T19:45:16.984Z,0
2019-01-21T19:46:26.953Z,0
2019-01-21T19:47:37.026Z,0
2019-01-21T19:48:47.001Z,0
2019-01-21T19:49:56.978Z,0
2019-01-21T19:51:06.699Z,0
2019-01-21T19:52:16.668Z,0
2019-01-21T19:53:26.739Z,0
2019-01-21T19:54:36.717Z,0
2019-01-21T19:55:46.689Z,0
2019-01-21T19:56:56.659Z,0
2019-01-21T19:58:06.642Z,0
2019-01-21T19:59:16.719Z,0
2019-01-21T20:00:26.694Z,0
2019-01-21T20:01:36.675Z,0
2019-01-21T20:02:46.969Z,0
2019-01-21T20:03:56.940Z,0
2019-01-21T20:05:06.963Z,0
2019-01-21T20:06:17.018Z,0
2019-01-21T20:07:26.998Z,0
2019-01-21T20:08:36.968Z,0
2019-01-21T20:09:46.962Z,0
2019-01-21T20:10:56.992Z,0
2019-01-21T20:12:06.964Z,0
2019-01-21T20:13:16.955Z,0
2019-01-21T20:14:26.931Z,0
2019-01-21T20:15:38.243Z,0
2019-01-21T20:16:48.322Z,0
2019-01-21T20:17:58.294Z,0
2019-01-21T20:19:08.279Z,0
2019-01-21T20:20:18.251Z,0
2019-01-21T20:21:28.225Z,0
2019-01-21T20:22:38.301Z,0
2019-01-21T20:23:48.276Z,0
2019-01-21T20:24:58.251Z,0
2019-01-21T20:26:08.228Z,0
2019-01-21T20:27:18.211Z,0
2019-01-21T20:28:28.288Z,0
2019-01-21T20:29:38.265Z,0
2019-01-21T20:30:48.243Z,0
2019-01-21T20:31:58.211Z,0
2019-01-21T20:33:08.191Z,0
2019-01-21T20:34:18.215Z,0
2019-01-21T20:35:28.200Z,0
2019-01-21T20:36:38.175Z,0
2019-01-21T20:37:48.152Z,0
2019-01-21T20:38:58.125Z,0
2019-01-21T20:40:08.201Z,0
2019-01-21T20:41:18.178Z,0
2019-01-21T20:42:28.153Z,0
2019-01-21T20:43:38.129Z,0
2019-01-21T20:44:48.105Z,0
2019-01-21T20:45:58.131Z,0
2019-01-21T20:47:08.139Z,0
2019-01-21T20:48:18.159Z,0
2019-01-21T20:49:28.148Z,0
2019-01-21T20:50:38.140Z,0
2019-01-21T20:51:48.216Z,0
2019-01-21T20:52:58.195Z,0
2019-01-21T20:54:08.171Z,0
2019-01-21T20:55:18.151Z,0
2019-01-21T20:56:28.134Z,0
2019-01-21T20:57:38.177Z,0
2019-01-21T20:58:49.688Z,0
2019-01-21T20:59:59.662Z,0
2019-01-21T21:01:09.661Z,0
2019-01-21T21:02:19.637Z,0
2019-01-21T21:03:29.658Z,0
2019-01-21T21:04:39.643Z,0
2019-01-21T21:05:49.624Z,0
2019-01-21T21:06:59.600Z,0
2019-01-21T21:08:09.577Z,0
2019-01-21T21:09:19.550Z,0
2019-01-21T21:10:29.527Z,0
2019-01-21T21:11:39.501Z,0
2019-01-21T21:12:49.479Z,0
2019-01-21T21:13:59.455Z,0
2019-01-21T21:15:09.482Z,0
2019-01-21T21:16:19.462Z,0
2019-01-21T21:17:29.439Z,0
2019-01-21T21:18:39.413Z,0
2019-01-21T21:19:49.403Z,0
2019-01-21T21:20:59.436Z,0
2019-01-21T21:22:09.418Z,0
2019-01-21T21:23:19.391Z,0
2019-01-21T21:24:30.538Z,0
2019-01-21T21:25:40.558Z,0
2019-01-21T21:26:50.678Z,0
2019-01-21T21:28:00.683Z,0
2019-01-21T21:29:10.737Z,0
2019-01-21T21:30:20.762Z,0
2019-01-21T21:31:30.796Z,0
2019-01-21T21:32:40.826Z,0
2019-01-21T21:33:50.849Z,0
2019-01-21T21:35:00.865Z,0
2019-01-21T21:36:10.886Z,0
2019-01-21T21:37:20.651Z,0
2019-01-21T21:38:30.812Z,0
2019-01-21T21:39:40.820Z,0
2019-01-21T21:40:51.561Z,0
2019-01-21T21:42:02.502Z,0
2019-01-21T21:43:13.261Z,0
2019-01-21T21:44:23.783Z,0
2019-01-21T21:45:35.217Z,0
2019-01-21T21:46:45.236Z,0
2019-01-21T21:47:55.274Z,0
2019-01-21T21:49:05.282Z,0
2019-01-21T21:50:15.370Z,0
2019-01-21T21:51:25.378Z,0
2019-01-21T21:52:37.331Z,0
2019-01-21T21:53:47.383Z,0
2019-01-21T21:54:57.407Z,0
2019-01-21T21:56:07.463Z,0
2019-01-21T21:57:17.951Z,0
2019-01-21T21:58:27.720Z,0
2019-01-21T21:59:37.731Z,0
2019-01-21T22:00:47.742Z,0
2019-01-21T22:01:57.846Z,0
2019-01-21T22:03:07.856Z,0
2019-01-21T22:04:17.892Z,0
2019-01-21T22:05:27.900Z,0
2019-01-21T22:06:37.915Z,0
2019-01-21T22:07:48.075Z,0
2019-01-21T22:08:58.941Z,0
2019-01-21T22:10:08.969Z,0
2019-01-21T22:11:18.742Z,0
2019-01-21T22:12:28.754Z,0
2019-01-21T22:13:38.863Z,0
2019-01-21T22:14:48.891Z,0
2019-01-21T22:15:58.900Z,0
2019-01-21T22:17:09.471Z,0
2019-01-21T22:18:20.301Z,0
2019-01-21T22:19:31.304Z,0
2019-01-21T22:20:41.598Z,0
2019-01-21T22:21:51.714Z,0
2019-01-21T22:23:01.725Z,0
2019-01-21T22:24:11.745Z,0
2019-01-21T22:25:21.821Z,0
2019-01-21T22:26:31.862Z,0
2019-01-21T22:27:41.909Z,0
2019-01-21T22:28:51.923Z,0
2019-01-21T22:30:01.934Z,0
2019-01-21T22:31:12.047Z,0
2019-01-21T22:32:22.072Z,0
2019-01-21T22:33:32.081Z,0
2019-01-21T22:34:42.087Z,0
2019-01-21T22:35:52.109Z,0
2019-01-21T22:37:02.235Z,0
2019-01-21T22:38:12.253Z,0
2019-01-21T22:39:22.274Z,0
2019-01-21T22:40:32.283Z,0
2019-01-21T22:41:42.296Z,0
2019-01-21T22:42:52.448Z,0
2019-01-21T22:44:02.468Z,0
2019-01-21T22:45:12.474Z,0
2019-01-21T22:46:22.493Z,0
2019-01-21T22:47:32.503Z,0
2019-01-21T22:48:42.627Z,0
2019-01-21T22:49:52.636Z,0
2019-01-21T22:51:02.694Z,0
2019-01-21T22:52:12.716Z,0
2019-01-21T22:53:22.737Z,0
2019-01-21T22:54:34.728Z,0
2019-01-21T22:55:45.456Z,0
2019-01-21T22:56:56.098Z,0
2019-01-21T22:58:06.382Z,0
2019-01-21T22:59:16.395Z,0
2019-01-21T23:00:26.512Z,0
2019-01-21T23:01:36.300Z,0
2019-01-21T23:02:46.301Z,0
2019-01-21T23:03:56.319Z,0
2019-01-21T23:05:06.378Z,0
2019-01-21T23:06:16.446Z,0
2019-01-21T23:07:26.452Z,0
2019-01-21T23:08:36.465Z,0
2019-01-21T23:09:46.497Z,0
2019-01-21T23:10:56.502Z,0
2019-01-21T23:12:06.629Z,0
2019-01-21T23:13:16.647Z,0
2019-01-21T23:14:26.666Z,0
2019-01-21T23:15:36.690Z,0
2019-01-21T23:16:46.710Z,0
2019-01-21T23:17:56.850Z,0
2019-01-21T23:19:06.877Z,0
2019-01-21T23:20:16.899Z,0
2019-01-21T23:21:26.949Z,0
2019-01-21T23:22:36.729Z,0
2019-01-21T23:23:46.810Z,0
2019-01-21T23:24:56.821Z,0
2019-01-21T23:26:06.826Z,0
2019-01-21T23:27:16.832Z,0
2019-01-21T23:28:26.855Z,0
2019-01-21T23:29:36.964Z,0
2019-01-21T23:30:46.977Z,0
2019-01-21T23:31:57.002Z,0
2019-01-21T23:33:07.580Z,0
2019-01-21T23:34:18.600Z,0
2019-01-21T23:35:29.679Z,0
2019-01-21T23:36:40.070Z,0
2019-01-21T23:37:50.328Z,0
2019-01-21T23:39:00.388Z,0
2019-01-21T23:40:10.408Z,0
2019-01-21T23:41:20.529Z,0
2019-01-21T23:42:30.567Z,0
2019-01-21T23:43:40.590Z,0
2019-01-21T23:44:50.615Z,0
2019-01-21T23:46:00.643Z,0
2019-01-21T23:47:10.775Z,0
2019-01-21T23:48:20.548Z,0
2019-01-21T23:49:30.560Z,0
2019-01-21T23:50:40.586Z,0
2019-01-21T23:51:50.604Z,0
2019-01-21T23:53:05.372Z,0
2019-01-21T23:54:15.382Z,0
2019-01-21T23:55:25.405Z,0
2019-01-21T23:56:35.408Z,0
2019-01-21T23:57:45.457Z,0
2019-01-21T23:58:55.523Z,0
